Soaring Guidance
Issued by NWS Reno, NV

Home | Current Version | Previous Version | Text Only | Print | Product List | Glossary On
Versions: 1 2 3 4 5 6 7 8 9 10 11 12 13
000
UXUS97 KREV 211344
SRGREV

SOARING FORECAST
NATIONAL WEATHER SERVICE - RENO NV
700 AM PDT THU SEP 21 2017

THIS SOARING FORECAST IS FOR THE EASTERN SIERRA AND WESTERN NEVADA
WITH SPECIFIC INDICES FOR THE GREATER RENO AREA.

THIS FORECAST IS PREPARED DAILY BY 700 AM AND IS NOT UPDATED.

FOR CURRENT FLIGHT CONDITIONS...FORECASTS...AND ADVISORIES...ACCESS
YOUR LOCAL BRIEFING OUTLET OR FLIGHT SERVICE STATION.

*******************************************************************
FORECASTED LOCAL INDICES FOR RENO:        TODAY     YESTERDAY
FORECASTED MAX TEMP AT RENO (DEG F).....     59          71
FORECASTED TRIGGER TEMPERATURE (DEG F)..     50          58
   EXCEEDED YESTERDAY BY 855 AM PDT
FORECASTED MAXIMUM ALTITUDE (FT MSL)....  14800       12300
FORECASTED SOARING INDEX (FPM)..........    864         519
FORECASTED K-INDEX.........VALID 18Z....     28          26
FORECASTED K-INDEX.........VALID 00Z....     26          29
FORECASTED LIFTED INDEX....VALID 18Z....     -2           5
FORECASTED LIFTED INDEX....VALID 00Z....     -1           3

AFTERNOON WINDS ALOFT FORECAST
MSL (FT) WIND/TEMP
9000  2916/-04
10000 2916/-06
12000 3115/-10
14000 3116/-14
16000 3117/-19
18000 3118/-24
24000 2916/-38
30000 2720/-44
34000 2624/-41
39000 2440/-44

SLIDE MOUNTAIN DATA:
     DATE       TIME     TEMP  DEWPT   RH         WIND (MPH)
                        (F)   (F)           | DIR  SPEED GUST
2017-09-20    10:20      36    34     91    | 241   43   58
2017-09-20    10:00      36    34     90    | 241   43   56
2017-09-20    09:50      36    34     91    | 242   44   63
2017-09-20    09:30      36    34     93    | 244   43   53

SIERRA CREST 8700 FT DATA:
   DATE     TIME  TEMP  RH         WIND
                            DIR   SPEED   GUST
2017-09-21 0600   25   99   220     10     28
2017-09-21 0545   25  100   220     14     20
2017-09-21 0530   25  100   220     16     20
2017-09-21 0515   25  100   220     19     28

RENO TAF FORECAST:
KRNO 211136Z 2112/2212 30008KT P6SM FEW070 BKN240
     FM211600 32010KT P6SM VCSH BKN040 OVC120
     FM212100 32012G24KT P6SM -SHRA BKN040 OVC080
     FM220200 32008KT P6SM SCT050 BKN120

CARSON CITY TAF FORECAST:
KCXP 211136Z 2112/2212 VRB05KT P6SM FEW070 BKN240
     FM211700 28008KT P6SM VCSH BKN050 OVC120
     FM212100 28010G20KT P6SM -SHRA BKN040 OVC080
     FM220200 29008KT P6SM BKN040

OUTLOOK FOR THE RENO-CARSON CITY-MINDEN AREA:
.FRIDAY...MOSTLY CLOUDY. HIGHS 57 TO 62. LIGHT WINDS.

SUNRISE AND SUNSET
SEPTEMBER 21 2017.....SUNRISE   646 AM PDT   SUNSET   657 PM PDT
SEPTEMBER 22 2017.....SUNRISE   647 AM PDT   SUNSET   656 PM PDT


USA.gov is the U.S. government's official web portal to all federal, state and local government web resources and services.